EGXW/WTN METAR and TAF weather

Enter ICAO airport designator
Station Type Date Time Source
EGXW METAR 2019/06/16 06:50 UTC NOAA

EGXW 160650Z 21011KT CAVOK 13/10 Q1014 NOSIG RMK BLU BLU


Station Type Date Time Source
EGXW Decoded METAR 2019/06/16 06:50 UTC NOAA

Waddington, United Kingdom (EGXW) 53-10N 000-31W 0M
Jun 16, 2019 - 02:50 AM EDT / 2019.06.16 0650 UTC
Wind: from the SSW (210 degrees) at 13 MPH (11 KT):0
Visibility: greater than 7 mile(s):0
Temperature: 55 F (13 C)
Dew Point: 50 F (10 C)
Relative Humidity: 81%
Pressure (altimeter): 29.94 in. Hg (1014 hPa)
ob: EGXW 160650Z 21011KT CAVOK 13/10 Q1014 NOSIG RMK BLU BLU
cycle: 7

Station Type Date Time Source
EGXW TAF 2019/06/16 06:57 UTC NOAA

TAF TAF EGXW 160554Z 1606/1624 19008KT 9999 FEW045
TEMPO 1611/1618 21018G28KT 7000 SHRA PROB30
TEMPO 1613/1618 4000 +SHRA BKN025CB PROB40
TEMPO 1618/1622 -RA BKN020

Example: see airport list